Accueil
METAR-TAF:

METAR-TAF

Aéroports :

Baker City, Oregon, États-Unis

latitude: 44-50-14N, longitude: 117-48-33W, altitude: 1028 m

Observation

Le bulletin a été fait il y a 1 heure et 22 minutes, à 13:53 UTC
Vent calme
Température 13°C
Humidité 82%
Pression 1020 hPa
Visibilité: 16.1 km
Ciel clair

METAR: KBKE 201353Z AUTO 00000KT 10SM CLR 13/10 A3013 RMK AO2 SLP188 T01280100

Heure: 08:15 (15:15 UTC)

Prévision

Le bulletin a été fait il y a 3 heures et 36 minutes, à 11:39 UTC
Prévision valable du 20 à 12 UTC au 21 à 12 UTC
Vent 4 kt de direction variable
Visibilité: 10 km
Nuages épars à une hauteur de 15000 ft
Temporairement
du 21 à 05 UTC au 21 à 07 UTC
Vent 15 kt de ouest avec des rafales jusqu'à 25 kt
Nuages fragmentés à une hauteur de 5000 ft, Cumulonimbus.
orage, pluie faible

TAF: KBKE 201139Z 2012/2112 VRB04KT P6SM SCT150 TEMPO 2105/2107 27015G25KT -TSRA BKN050CB

Observations et prévisions météorologiques de plus de 4000 aéroports (messages METAR et TAF).

Les stations disponibles sont représentées par des disques jaunes et rouges sur la carte.

Passer la souris dessus pour voir le nom de la station.

Cliquer dessus pour voir les observations et prévisions météorologiques.

Pour changer de carte: cliquez sur les boutons verts avec une croix noire pour zoomer, sur le bouton vert avec un tiret pour effectuer un zoom arrière, ou sur les flèches vertes pour les cartes adjacentes.


METAR-TAF: